createdAt,value
2023-03-21T00:01:02.214Z,100.00
2023-03-21T00:03:30.909Z,100.00
2023-03-21T00:05:58.676Z,100.00
2023-03-21T00:08:26.928Z,100.00
2023-03-21T00:11:02.723Z,100.00
2023-03-21T00:13:38.581Z,100.00
2023-03-21T00:19:06.584Z,100.00
2023-03-21T00:21:55.580Z,100.00
2023-03-21T00:24:26.007Z,100.00
2023-03-21T00:26:53.968Z,100.00
2023-03-21T00:29:21.551Z,100.00
2023-03-21T00:31:49.957Z,100.00
2023-03-21T00:34:22.580Z,100.00
2023-03-21T00:36:59.172Z,100.00
2023-03-21T00:39:26.812Z,100.00
2023-03-21T00:41:54.374Z,100.00
2023-03-21T00:44:23.551Z,100.00
2023-03-21T00:47:06.311Z,100.00
2023-03-21T00:49:34.378Z,100.00
2023-03-21T00:52:15.296Z,100.00
2023-03-21T00:54:46.138Z,100.00
2023-03-21T00:57:14.079Z,100.00
2023-03-21T00:59:41.673Z,100.00
2023-03-21T01:02:09.112Z,100.00
2023-03-21T01:04:37.378Z,100.00
2023-03-21T01:07:04.790Z,100.00
2023-03-21T01:09:32.936Z,100.00
2023-03-21T01:12:00.600Z,100.00
2023-03-21T01:14:27.990Z,100.00
2023-03-21T01:16:55.871Z,100.00
2023-03-21T01:19:44.339Z,100.00
2023-03-21T01:22:15.800Z,100.00
2023-03-21T01:24:53.024Z,100.00
2023-03-21T01:27:22.760Z,100.00
2023-03-21T01:29:50.777Z,100.00
2023-03-21T01:32:18.149Z,100.00
2023-03-21T01:34:45.680Z,100.00
2023-03-21T01:37:20.077Z,100.00
2023-03-21T01:39:47.516Z,100.00
2023-03-21T01:42:15.141Z,100.00
2023-03-21T01:45:06.405Z,100.00
2023-03-21T01:47:33.828Z,100.00
2023-03-21T01:50:03.919Z,100.00
2023-03-21T01:52:38.654Z,100.00
2023-03-21T01:55:13.864Z,100.00
2023-03-21T01:58:05.492Z,100.00
2023-03-21T02:00:36.642Z,100.00
2023-03-21T02:03:17.049Z,100.00
2023-03-21T02:06:00.873Z,100.00
2023-03-21T02:08:39.680Z,100.00
2023-03-21T02:11:10.239Z,100.00
2023-03-21T02:13:37.766Z,100.00
2023-03-21T02:16:28.987Z,100.00
2023-03-21T02:19:22.977Z,100.00
2023-03-21T02:22:29.193Z,100.00
2023-03-21T02:25:21.857Z,100.00
2023-03-21T02:28:14.971Z,100.00
2023-03-21T02:30:52.727Z,100.00
2023-03-21T02:33:38.218Z,100.00
2023-03-21T02:36:34.253Z,100.00
2023-03-21T02:39:08.026Z,100.00
2023-03-21T02:41:48.795Z,100.00
2023-03-21T02:44:24.278Z,100.00
2023-03-21T02:47:13.894Z,100.00
2023-03-21T02:49:58.503Z,100.00
2023-03-21T02:52:38.516Z,100.00
2023-03-21T02:55:15.585Z,100.00
2023-03-21T02:57:45.395Z,100.00
2023-03-21T03:00:19.128Z,100.00
2023-03-21T03:02:48.807Z,100.00
2023-03-21T03:05:27.084Z,100.00
2023-03-21T03:08:12.821Z,100.00
2023-03-21T03:11:16.653Z,100.00
2023-03-21T03:14:37.017Z,100.00
2023-03-21T03:17:05.523Z,100.00
2023-03-21T03:19:49.998Z,100.00
2023-03-21T03:22:27.994Z,100.00
2023-03-21T03:25:12.592Z,100.00
2023-03-21T03:27:49.653Z,100.00
2023-03-21T03:30:17.704Z,100.00
2023-03-21T03:32:53.808Z,100.00
2023-03-21T03:35:25.005Z,100.00
2023-03-21T03:38:00.453Z,100.00
2023-03-21T03:40:42.312Z,100.00
2023-03-21T03:43:20.083Z,100.00
2023-03-21T03:46:02.371Z,100.00
2023-03-21T03:48:46.548Z,100.00
2023-03-21T03:51:22.045Z,100.00
2023-03-21T03:53:55.845Z,100.00
2023-03-21T03:56:26.378Z,100.00
2023-03-21T03:58:54.509Z,100.00
2023-03-21T04:01:22.119Z,100.00
2023-03-21T04:03:58.541Z,100.00
2023-03-21T04:06:32.440Z,100.00
2023-03-21T04:09:03.450Z,100.00
2023-03-21T04:11:32.855Z,100.00
2023-03-21T04:14:00.502Z,100.00
2023-03-21T04:16:32.388Z,100.00
2023-03-21T04:19:02.469Z,100.00
2023-03-21T04:21:30.742Z,100.00
2023-03-21T04:24:00.881Z,100.00
2023-03-21T04:26:33.079Z,100.00
2023-03-21T04:29:01.045Z,100.00
2023-03-21T04:31:31.698Z,100.00
2023-03-21T04:33:59.880Z,100.00
2023-03-21T04:36:38.900Z,100.00
2023-03-21T04:39:12.443Z,100.00
2023-03-21T04:41:45.526Z,100.00
2023-03-21T04:44:15.690Z,100.00
2023-03-21T04:46:43.973Z,100.00
2023-03-21T04:49:11.669Z,100.00
2023-03-21T04:51:40.101Z,100.00
2023-03-21T04:56:39.632Z,100.00
2023-03-21T04:59:10.863Z,100.00
2023-03-21T05:01:38.343Z,100.00
2023-03-21T05:04:05.966Z,100.00
2023-03-21T05:06:34.426Z,100.00
2023-03-21T05:09:05.629Z,100.00
2023-03-21T05:11:37.643Z,100.00
2023-03-21T05:14:06.826Z,100.00
2023-03-21T05:16:36.531Z,100.00
2023-03-21T05:19:06.520Z,100.00
2023-03-21T05:21:41.352Z,100.00
2023-03-21T05:24:13.709Z,100.00
2023-03-21T05:26:43.361Z,100.00
2023-03-21T05:29:11.326Z,100.00
2023-03-21T05:31:39.360Z,100.00
2023-03-21T05:34:06.810Z,100.00
2023-03-21T05:36:40.468Z,100.00
2023-03-21T05:39:08.049Z,100.00
2023-03-21T05:41:35.427Z,100.00
2023-03-21T05:44:02.934Z,100.00
2023-03-21T05:46:32.242Z,100.00
2023-03-21T05:49:00.990Z,100.00
2023-03-21T05:51:29.469Z,100.00
2023-03-21T05:53:57.292Z,100.00
2023-03-21T05:56:24.704Z,100.00
2023-03-21T05:58:52.063Z,100.00
2023-03-21T06:01:23.640Z,100.00
2023-03-21T06:03:51.106Z,100.00
2023-03-21T06:06:18.463Z,100.00
2023-03-21T06:08:46.086Z,100.00
2023-03-21T06:11:27.246Z,100.00
2023-03-21T06:13:55.040Z,100.00
2023-03-21T06:16:28.826Z,100.00
2023-03-21T06:18:57.209Z,100.00
2023-03-21T06:21:26.720Z,100.00
2023-03-21T06:23:54.243Z,100.00
2023-03-21T06:26:23.222Z,100.00
2023-03-21T06:28:51.241Z,100.00
2023-03-21T06:31:22.667Z,100.00
2023-03-21T06:33:50.289Z,100.00
2023-03-21T06:36:18.694Z,100.00
2023-03-21T06:38:47.004Z,100.00
2023-03-21T06:41:15.875Z,100.00
2023-03-21T06:43:46.489Z,100.00
2023-03-21T06:46:14.107Z,100.00
2023-03-21T06:48:44.948Z,100.00
2023-03-21T06:51:15.747Z,100.00
2023-03-21T06:53:44.656Z,100.00
2023-03-21T06:56:14.121Z,100.00
2023-03-21T06:58:42.174Z,100.00
2023-03-21T07:01:09.752Z,100.00
2023-03-21T07:03:37.969Z,100.00
2023-03-21T07:06:07.607Z,100.00
2023-03-21T07:08:35.133Z,100.00
2023-03-21T07:11:02.515Z,100.00
2023-03-21T07:13:31.982Z,100.00
2023-03-21T07:15:59.960Z,100.00
2023-03-21T07:18:28.285Z,100.00
2023-03-21T07:20:56.120Z,100.00
2023-03-21T07:23:25.862Z,100.00
2023-03-21T07:25:55.416Z,100.00
2023-03-21T07:28:23.948Z,100.00
2023-03-21T07:30:54.672Z,100.00
2023-03-21T07:33:24.679Z,100.00
2023-03-21T07:35:53.920Z,100.00
2023-03-21T07:38:28.147Z,100.00
2023-03-21T07:40:55.664Z,100.00
2023-03-21T07:43:23.107Z,100.00
2023-03-21T07:45:56.204Z,100.00
2023-03-21T07:48:23.794Z,100.00
2023-03-21T07:50:51.458Z,100.00
2023-03-21T07:53:19.426Z,100.00
2023-03-21T07:55:56.437Z,100.00
2023-03-21T07:58:25.873Z,100.00
2023-03-21T08:00:53.823Z,100.00
2023-03-21T08:03:21.873Z,100.00
2023-03-21T08:05:49.754Z,100.00
2023-03-21T08:08:18.716Z,100.00
2023-03-21T08:10:46.250Z,98.69
2023-03-21T08:13:13.759Z,98.98
2023-03-21T08:15:42.481Z,100.00
2023-03-21T08:18:10.923Z,100.00
2023-03-21T08:20:41.784Z,99.10
2023-03-21T08:23:09.225Z,100.00
2023-03-21T08:25:36.962Z,100.00
2023-03-21T08:28:04.530Z,99.26
2023-03-21T08:30:33.135Z,98.29
2023-03-21T08:33:01.934Z,100.00
2023-03-21T08:35:31.623Z,99.95
2023-03-21T08:37:59.196Z,100.00
2023-03-21T08:40:26.725Z,99.34
2023-03-21T08:42:56.710Z,100.00
2023-03-21T08:45:25.536Z,98.42
2023-03-21T08:47:54.570Z,98.34
2023-03-21T08:50:25.019Z,97.85
2023-03-21T08:52:52.720Z,98.52
2023-03-21T08:55:20.282Z,97.29
2023-03-21T08:57:48.273Z,96.69
2023-03-21T09:00:20.864Z,95.78
2023-03-21T09:02:51.561Z,94.08
2023-03-21T09:05:19.667Z,93.83
2023-03-21T09:07:49.812Z,93.96
2023-03-21T09:10:21.576Z,92.39
2023-03-21T09:12:56.018Z,93.29
2023-03-21T09:15:25.704Z,90.97
2023-03-21T09:17:54.557Z,90.55
2023-03-21T09:20:33.051Z,89.39
2023-03-21T09:23:01.893Z,88.24
2023-03-21T09:25:31.546Z,85.69
2023-03-21T09:28:05.350Z,82.96
2023-03-21T09:30:36.713Z,80.91
2023-03-21T09:33:08.991Z,80.30
2023-03-21T09:35:37.748Z,79.89
2023-03-21T09:38:05.987Z,78.33
2023-03-21T09:41:05.203Z,78.11
2023-03-21T09:43:35.660Z,79.22
2023-03-21T09:46:27.573Z,78.98
2023-03-21T09:48:57.748Z,78.17
2023-03-21T09:51:37.212Z,79.51
2023-03-21T09:54:18.286Z,79.34
2023-03-21T09:56:46.510Z,79.93
2023-03-21T09:59:33.613Z,80.00
2023-03-21T10:02:03.402Z,81.27
2023-03-21T10:04:32.016Z,80.14
2023-03-21T10:07:02.293Z,81.03
2023-03-21T10:09:32.603Z,83.31
2023-03-21T10:12:14.926Z,84.04
2023-03-21T10:14:46.302Z,81.60
2023-03-21T10:17:43.759Z,81.31
2023-03-21T10:20:21.504Z,82.14
2023-03-21T10:22:54.944Z,81.09
2023-03-21T10:25:30.092Z,79.80
2023-03-21T10:27:59.639Z,79.96
2023-03-21T10:30:48.965Z,80.16
2023-03-21T10:33:26.607Z,79.29
2023-03-21T10:36:02.595Z,78.57
2023-03-21T10:38:30.784Z,78.96
2023-03-21T10:40:58.312Z,77.72
2023-03-21T10:43:26.199Z,76.88
2023-03-21T10:45:57.643Z,78.85
2023-03-21T10:48:26.802Z,78.42
2023-03-21T10:50:56.250Z,78.34
2023-03-21T10:53:38.222Z,79.33
2023-03-21T10:56:10.240Z,78.34
2023-03-21T10:58:46.961Z,78.44
2023-03-21T11:01:26.116Z,77.39
2023-03-21T11:03:59.559Z,78.69
2023-03-21T11:06:31.802Z,77.70
2023-03-21T11:09:08.409Z,78.57
2023-03-21T11:12:01.766Z,78.31
2023-03-21T11:14:40.705Z,75.96
2023-03-21T11:17:17.192Z,76.88
2023-03-21T11:19:49.477Z,76.65
2023-03-21T11:22:18.919Z,77.10
2023-03-21T11:24:52.970Z,76.71
2023-03-21T11:27:21.241Z,78.82
2023-03-21T11:29:51.221Z,77.20
2023-03-21T11:32:26.387Z,75.63
2023-03-21T11:35:23.769Z,77.38
2023-03-21T11:37:57.639Z,76.26
2023-03-21T11:40:29.239Z,74.86
2023-03-21T11:42:57.604Z,73.48
2023-03-21T11:45:26.540Z,73.51
2023-03-21T11:47:56.584Z,72.30
2023-03-21T11:50:46.842Z,71.43
2023-03-21T11:53:31.943Z,72.26
2023-03-21T11:56:25.942Z,71.65
2023-03-21T11:58:53.311Z,71.93
2023-03-21T12:01:42.422Z,72.26
2023-03-21T12:04:31.964Z,72.36
2023-03-21T12:07:11.238Z,72.08
2023-03-21T12:09:42.211Z,71.91
2023-03-21T12:12:38.254Z,70.85
2023-03-21T12:15:32.091Z,70.12
2023-03-21T12:18:20.714Z,71.71
2023-03-21T12:21:02.192Z,70.57
2023-03-21T12:23:46.834Z,70.28
2023-03-21T12:26:39.789Z,69.82
2023-03-21T12:29:26.417Z,69.31
2023-03-21T12:32:29.324Z,69.98
2023-03-21T12:35:35.053Z,69.28
2023-03-21T12:38:08.347Z,67.89
2023-03-21T12:40:44.469Z,66.53
2023-03-21T12:43:38.686Z,66.68
2023-03-21T12:46:22.767Z,65.85
2023-03-21T12:48:58.728Z,66.07
2023-03-21T12:51:32.816Z,65.13
2023-03-21T12:54:08.936Z,64.01
2023-03-21T12:56:53.063Z,63.84
2023-03-21T12:59:25.386Z,65.10
2023-03-21T13:01:58.155Z,65.19
2023-03-21T13:05:00.171Z,65.10
2023-03-21T13:07:36.098Z,65.46
2023-03-21T13:10:13.967Z,65.57
2023-03-21T13:12:50.467Z,65.10
2023-03-21T13:15:30.083Z,66.34
2023-03-21T13:18:12.680Z,65.40
2023-03-21T13:20:50.469Z,65.27
2023-03-21T13:23:22.460Z,64.17
2023-03-21T13:25:55.200Z,62.50
2023-03-21T13:28:31.693Z,62.42
2023-03-21T13:31:30.512Z,61.77
2023-03-21T13:34:00.255Z,61.72
2023-03-21T13:36:32.211Z,61.68
2023-03-21T13:39:02.676Z,59.23
2023-03-21T13:41:32.466Z,57.11
2023-03-21T13:44:02.883Z,54.96
2023-03-21T13:46:34.186Z,53.98
2023-03-21T13:49:11.005Z,48.68
2023-03-21T13:51:43.943Z,47.32
2023-03-21T13:54:15.766Z,48.13
2023-03-21T13:56:50.280Z,47.57
2023-03-21T13:59:33.000Z,47.18
2023-03-21T14:02:04.072Z,47.33
2023-03-21T14:04:41.906Z,47.29
2023-03-21T14:07:23.259Z,45.87
2023-03-21T14:09:54.189Z,47.32
2023-03-21T14:12:28.672Z,45.58
2023-03-21T14:15:19.011Z,46.24
2023-03-21T14:17:58.788Z,46.66
2023-03-21T14:20:42.152Z,48.02
2023-03-21T14:23:15.707Z,50.32
2023-03-21T14:25:47.799Z,51.51
2023-03-21T14:28:15.447Z,51.70
2023-03-21T14:30:44.932Z,51.20
2023-03-21T14:33:31.358Z,51.31
2023-03-21T14:36:02.049Z,49.93
2023-03-21T14:38:36.641Z,52.59
2023-03-21T14:41:05.811Z,53.98
2023-03-21T14:43:38.417Z,54.80
2023-03-21T14:46:06.647Z,55.10
2023-03-21T14:48:35.422Z,56.27
2023-03-21T14:51:12.515Z,55.99
2023-03-21T14:53:42.675Z,57.43
2023-03-21T14:56:22.115Z,58.89
2023-03-21T14:58:54.094Z,58.86
2023-03-21T15:01:34.958Z,60.02
2023-03-21T15:04:06.479Z,61.04
2023-03-21T15:06:52.977Z,61.89
2023-03-21T15:09:23.650Z,61.85
2023-03-21T15:11:52.930Z,63.79
2023-03-21T15:14:26.767Z,65.04
2023-03-21T15:16:56.371Z,66.14
2023-03-21T15:19:30.253Z,67.05
2023-03-21T15:22:27.543Z,67.55
2023-03-21T15:25:02.312Z,67.84
2023-03-21T15:27:34.851Z,67.92
2023-03-21T15:30:02.330Z,68.05
2023-03-21T15:32:37.068Z,67.94
2023-03-21T15:35:08.281Z,68.07
2023-03-21T15:37:37.780Z,68.48
2023-03-21T15:40:12.052Z,70.75
2023-03-21T15:42:41.786Z,69.17
2023-03-21T15:45:30.501Z,70.29
2023-03-21T15:48:03.146Z,70.96
2023-03-21T15:50:33.810Z,70.15
2023-03-21T15:53:05.831Z,70.52
2023-03-21T15:55:48.408Z,70.53
2023-03-21T15:58:21.148Z,71.25
2023-03-21T16:00:55.550Z,71.48
2023-03-21T16:03:27.391Z,72.04
2023-03-21T16:06:14.443Z,72.67
2023-03-21T16:08:46.820Z,74.97
2023-03-21T16:11:25.669Z,78.44
2023-03-21T16:13:54.750Z,79.32
2023-03-21T16:16:25.040Z,79.92
2023-03-21T16:19:01.792Z,81.47
2023-03-21T16:21:31.747Z,81.57
2023-03-21T16:23:59.134Z,81.65
2023-03-21T16:26:32.791Z,82.65
2023-03-21T16:29:00.458Z,82.97
2023-03-21T16:31:31.064Z,83.06
2023-03-21T16:33:59.860Z,83.11
2023-03-21T16:36:31.713Z,84.32
2023-03-21T16:39:17.935Z,83.39
2023-03-21T16:41:45.835Z,83.93
2023-03-21T16:44:13.748Z,83.34
2023-03-21T16:46:42.745Z,83.73
2023-03-21T16:49:28.299Z,84.74
2023-03-21T16:51:59.157Z,85.73
2023-03-21T16:54:27.131Z,86.22
2023-03-21T16:56:55.827Z,87.07
2023-03-21T16:59:23.227Z,84.63
2023-03-21T17:01:51.201Z,85.42
2023-03-21T17:04:19.445Z,86.12
2023-03-21T17:06:49.607Z,85.74
2023-03-21T17:09:20.091Z,85.84
2023-03-21T17:11:52.851Z,87.60
2023-03-21T17:14:21.661Z,88.78
2023-03-21T17:16:49.333Z,90.01
2023-03-21T17:19:20.245Z,89.57
2023-03-21T17:21:47.798Z,89.45
2023-03-21T17:24:15.730Z,90.21
2023-03-21T17:26:43.920Z,91.03
2023-03-21T17:29:14.044Z,91.89
2023-03-21T17:31:47.514Z,92.62
2023-03-21T17:34:15.526Z,92.79
2023-03-21T17:36:46.367Z,93.01
2023-03-21T17:39:19.647Z,94.01
2023-03-21T17:41:47.361Z,94.97
2023-03-21T17:44:15.048Z,95.22
2023-03-21T17:46:42.846Z,95.29
2023-03-21T17:49:16.121Z,96.20
2023-03-21T17:51:46.869Z,96.03
2023-03-21T17:54:14.397Z,96.93
2023-03-21T17:56:42.238Z,96.94
2023-03-21T17:59:13.711Z,98.63
2023-03-21T18:01:45.868Z,98.33
2023-03-21T18:04:13.349Z,98.83
2023-03-21T18:06:41.192Z,100.00
2023-03-21T18:09:13.744Z,99.86
2023-03-21T18:11:41.589Z,99.93
2023-03-21T18:14:17.664Z,100.00
2023-03-21T18:16:47.566Z,100.00
2023-03-21T18:19:15.383Z,100.00
2023-03-21T18:21:47.693Z,100.00
2023-03-21T18:24:15.944Z,100.00
2023-03-21T18:26:44.314Z,100.00
2023-03-21T18:32:07.538Z,100.00
2023-03-21T18:34:38.940Z,100.00
2023-03-21T18:37:08.650Z,100.00
2023-03-21T18:39:37.227Z,100.00
2023-03-21T18:42:06.582Z,100.00
2023-03-21T18:44:38.982Z,100.00
2023-03-21T18:47:07.776Z,100.00
2023-03-21T18:52:24.241Z,100.00
2023-03-21T18:54:52.965Z,100.00
2023-03-21T18:57:35.764Z,100.00
2023-03-21T19:00:17.574Z,100.00
2023-03-21T19:02:48.359Z,100.00
2023-03-21T19:05:23.385Z,100.00
2023-03-21T19:07:52.205Z,100.00
2023-03-21T19:10:21.997Z,100.00
2023-03-21T19:12:53.134Z,100.00
2023-03-21T19:15:22.087Z,100.00
2023-03-21T19:18:33.962Z,100.00
2023-03-21T19:20:46.982Z,100.00
2023-03-21T19:23:17.231Z,100.00
2023-03-21T19:25:45.261Z,100.00
2023-03-21T19:28:12.699Z,100.00
2023-03-21T19:30:49.126Z,100.00
2023-03-21T19:33:24.666Z,100.00
2023-03-21T19:36:10.873Z,100.00
2023-03-21T19:38:39.879Z,100.00
2023-03-21T19:41:07.680Z,100.00
2023-03-21T19:43:35.326Z,100.00
2023-03-21T19:46:05.237Z,100.00
2023-03-21T19:48:34.488Z,100.00
2023-03-21T19:53:51.959Z,100.00
2023-03-21T19:56:23.011Z,100.00
2023-03-21T19:58:52.433Z,100.00
2023-03-21T20:01:20.290Z,100.00
2023-03-21T20:03:47.782Z,100.00
2023-03-21T20:06:16.751Z,100.00
2023-03-21T20:11:31.968Z,100.00
2023-03-21T20:14:03.240Z,100.00
2023-03-21T20:16:35.159Z,100.00
2023-03-21T20:19:09.121Z,100.00
2023-03-21T20:21:48.232Z,100.00
2023-03-21T20:24:20.740Z,100.00
2023-03-21T20:26:49.575Z,100.00
2023-03-21T20:30:07.103Z,100.00
2023-03-21T20:32:05.126Z,100.00
2023-03-21T20:34:33.087Z,100.00
2023-03-21T20:37:01.624Z,100.00
2023-03-21T20:39:30.034Z,100.00
2023-03-21T20:41:59.412Z,100.00
2023-03-21T20:44:51.850Z,100.00
2023-03-21T20:47:16.017Z,100.00
2023-03-21T20:49:43.423Z,100.00
2023-03-21T20:54:58.780Z,100.00
2023-03-21T20:57:28.118Z,100.00
2023-03-21T20:59:56.478Z,100.00
2023-03-21T21:02:26.666Z,100.00
2023-03-21T21:05:24.301Z,100.00
2023-03-21T21:07:43.103Z,100.00
2023-03-21T21:10:14.177Z,100.00
2023-03-21T21:12:45.378Z,100.00
2023-03-21T21:15:16.746Z,100.00
2023-03-21T21:18:04.715Z,100.00
2023-03-21T21:20:34.115Z,100.00
2023-03-21T21:23:02.068Z,100.00
2023-03-21T21:25:33.167Z,100.00
2023-03-21T21:28:02.034Z,100.00
2023-03-21T21:30:31.725Z,100.00
2023-03-21T21:33:01.030Z,100.00
2023-03-21T21:35:28.668Z,100.00
2023-03-21T21:37:57.197Z,100.00
2023-03-21T21:40:25.801Z,100.00
2023-03-21T21:42:53.179Z,100.00
2023-03-21T21:45:20.849Z,100.00
2023-03-21T21:47:48.861Z,100.00
2023-03-21T21:50:16.612Z,100.00
2023-03-21T21:52:44.128Z,100.00
2023-03-21T21:55:13.343Z,100.00
2023-03-21T21:57:41.129Z,100.00
2023-03-21T22:00:13.726Z,100.00
2023-03-21T22:02:41.690Z,100.00
2023-03-21T22:05:10.599Z,100.00
2023-03-21T22:07:42.033Z,100.00
2023-03-21T22:10:10.078Z,100.00
2023-03-21T22:12:37.680Z,100.00
2023-03-21T22:15:07.330Z,100.00
2023-03-21T22:17:37.656Z,100.00
2023-03-21T22:20:12.768Z,100.00
2023-03-21T22:22:41.960Z,100.00
2023-03-21T22:25:12.392Z,100.00
2023-03-21T22:27:40.562Z,100.00
2023-03-21T22:30:13.912Z,100.00
2023-03-21T22:33:06.289Z,100.00
2023-03-21T22:35:34.068Z,100.00
2023-03-21T22:38:01.592Z,100.00
2023-03-21T22:40:29.905Z,100.00
2023-03-21T22:42:59.544Z,100.00
2023-03-21T22:45:27.614Z,100.00
2023-03-21T22:47:55.035Z,100.00
2023-03-21T22:50:22.800Z,100.00
2023-03-21T22:52:50.114Z,100.00
2023-03-21T22:55:17.540Z,100.00
2023-03-21T22:57:46.206Z,100.00
2023-03-21T23:00:14.159Z,100.00
2023-03-21T23:02:42.727Z,100.00
2023-03-21T23:05:11.044Z,100.00
2023-03-21T23:07:40.294Z,100.00
2023-03-21T23:10:09.014Z,100.00
2023-03-21T23:12:37.658Z,100.00
2023-03-21T23:15:10.265Z,100.00
2023-03-21T23:17:39.002Z,100.00
2023-03-21T23:20:07.944Z,100.00
2023-03-21T23:22:39.064Z,100.00
2023-03-21T23:25:07.631Z,100.00
2023-03-21T23:27:35.823Z,100.00
2023-03-21T23:30:07.794Z,100.00
2023-03-21T23:32:36.214Z,100.00
2023-03-21T23:35:13.477Z,100.00
2023-03-21T23:37:50.129Z,100.00
2023-03-21T23:40:18.380Z,100.00
2023-03-21T23:42:46.571Z,100.00
2023-03-21T23:45:14.426Z,100.00
2023-03-21T23:47:43.105Z,100.00
2023-03-21T23:50:11.745Z,100.00
2023-03-21T23:52:42.205Z,100.00
2023-03-21T23:55:10.163Z,100.00
2023-03-21T23:57:41.923Z,100.00
